Hlavní strana
METAR-TAF:

METAR-TAF

Letiště :

Deline, Severozápadní teritoria, Kanada

zeměpisná šířka: 65-12N, zeměpisná délka: 123-26W, výška: 176 m

Aktuální stav počasí

Zpráva byla vytvořena před 1 hodinou a 6 minutami, v 14:13 UTC
Východní vítr 2 kt
Teplota -18°C
Vlhkost vzduchu 84%
Tlak 993 hPa
Viditelnost: 11.3 km
Oblačno až skoro zataženo ve výšce 900 ft

METAR: CYWJ 181413Z 09002KT 7SM BKN009 M18/M20 A2931 RMK SC7 CIG RAG SLP951

Čas: 08:19 (15:19 UTC)

Předpověď počasí

Zpráva byla vytvořena před 9 minutami, v 15:10 UTC
Předpověď platná od 18 v 15 UTC do 18 v 24 UTC
Východní vítr 5 kt
Viditelnost: 8.0 km
Oblačno až skoro zataženo ve výšce 900 ft
kouřmo
Dočasný
od 18 v 15 UTC do 18 v 24 UTC
Viditelnost: 10 km
Polojasno ve výšce 1200 ft

TAF: CYWJ 181510Z 1815/1824 08005KT 5SM BR BKN009 TEMPO 1815/1824 P6SM NSW SCT012 RMK NXT FCST BY 181800Z

Stav a předpovědi počasí z více než 4 000 letišť (zprávy METAR a TAF).

Červené a žluté tečky na mapě představují dostupné meteorologické stanice.

Když kurzor umístíte na tečku, zobrazí se název stanice.

Pak kliknutím zobrazíte stav a předpověď počasí.

Chcete-li změnit mapu, kliknutím na zelené tlačítko se znaménkem +mapu přiblížíte, kliknutím na zelené tlačítko se znaménkem – mapu oddálíte a kliknutím na zelené šipky přejdete na sousední mapy.


METAR-TAF: